Time;durP1;ratioP1;P1;durP2;ratioP2;P2;SDS_P1;SDS_P2;PMS_P1;PMS_P2;Temp;Humidity;BMP_temperature;BMP_pressure;BME280_temperature;BME280_humidity;BME280_pressure;Samples;Min_cycle;Max_cycle;Signal;HPM_P1;HPM_P2
2021/05/02 00:01:36;;;;;;;32.15;27.50;;;;;;;;;;5111386;27;20186;-74
2021/05/02 00:04:02;;;;;;;33.75;27.83;;;;;;;;;;5131269;27;20185;-74
2021/05/02 00:06:29;;;;;;;32.05;26.95;;;;;;;;;;5114133;27;20213;-74
2021/05/02 00:08:55;;;;;;;33.05;28.40;;;;;;;;;;5127511;27;20307;-74
2021/05/02 00:11:21;;;;;;;29.83;25.73;;;;;;;;;;5118207;27;20193;-74
2021/05/02 00:13:47;;;;;;;35.17;28.33;;;;;;;;;;5124018;27;20597;-75
2021/05/02 00:16:13;;;;;;;32.00;27.45;;;;;;;;;;5110977;28;20412;-74
2021/05/02 00:18:39;;;;;;;32.03;27.30;;;;;;;;;;5124473;27;20196;-74
2021/05/02 00:21:07;;;;;;;35.53;29.88;;;;;;;;;;5108206;27;20419;-75
2021/05/02 00:23:34;;;;;;;37.75;32.10;;;;;;;;;;5130923;27;20181;-74
2021/05/02 00:26:00;;;;;;;38.90;32.10;;;;;;;;;;5102673;27;20202;-76
2021/05/02 00:28:27;;;;;;;37.97;31.77;;;;;;;;;;5113257;27;20250;-74
2021/05/02 00:30:53;;;;;;;40.65;32.80;;;;;;;;;;5115848;27;20192;-74
2021/05/02 00:33:20;;;;;;;42.45;35.40;;;;;;;;;;5130891;27;20184;-75
2021/05/02 00:35:48;;;;;;;43.92;34.15;;;;;;;;;;5119568;27;20202;-75
2021/05/02 00:38:14;;;;;;;45.60;34.67;;;;;;;;;;5111336;27;20603;-74
2021/05/02 00:40:41;;;;;;;43.63;35.70;;;;;;;;;;5130825;27;20230;-74
2021/05/02 00:43:08;;;;;;;47.22;35.90;;;;;;;;;;5114413;27;20265;-75
2021/05/02 00:45:53;;;;;;;47.42;35.08;;;;;;;;;;5130829;27;20174;-75
2021/05/02 00:48:42;;;;;;;41.38;33.15;;;;;;;;;;5118091;27;20310;-74
2021/05/02 00:51:09;;;;;;;46.85;35.03;;;;;;;;;;5130623;27;20272;-75
2021/05/02 00:53:35;;;;;;;44.88;32.88;;;;;;;;;;5121594;27;20182;-74
2021/05/02 00:56:05;;;;;;;46.23;34.03;;;;;;;;;;5130197;27;20184;-75
2021/05/02 00:58:32;;;;;;;48.10;33.65;;;;;;;;;;5117057;27;20454;-74
2021/05/02 01:01:00;;;;;;;46.33;35.72;;;;;;;;;;5127452;27;20261;-73
2021/05/02 01:03:26;;;;;;;47.58;35.63;;;;;;;;;;5128661;27;20265;-74
2021/05/02 01:05:53;;;;;;;47.35;33.80;;;;;;;;;;5120741;27;20653;-74
2021/05/02 01:08:19;;;;;;;46.75;34.15;;;;;;;;;;5130446;27;20236;-74
2021/05/02 01:10:45;;;;;;;46.63;35.20;;;;;;;;;;5119894;27;20179;-74
2021/05/02 01:13:14;;;;;;;46.58;35.97;;;;;;;;;;5120406;27;20505;-75
2021/05/02 01:15:44;;;;;;;49.50;34.00;;;;;;;;;;5115104;27;20538;-74
2021/05/02 01:18:10;;;;;;;42.80;32.20;;;;;;;;;;5130244;27;20198;-75
2021/05/02 01:20:43;;;;;;;43.53;32.47;;;;;;;;;;5121195;28;20244;-74
2021/05/02 01:23:18;;;;;;;41.08;32.00;;;;;;;;;;5106758;28;21722;-73
2021/05/02 01:25:45;;;;;;;43.03;32.33;;;;;;;;;;5113358;28;20542;-73
2021/05/02 01:28:11;;;;;;;40.42;33.28;;;;;;;;;;5122514;28;20623;-73
2021/05/02 01:30:37;;;;;;;40.30;30.40;;;;;;;;;;5116000;28;20174;-73
2021/05/02 01:33:03;;;;;;;41.75;32.25;;;;;;;;;;5113717;28;20344;-74
2021/05/02 01:35:29;;;;;;;39.95;31.25;;;;;;;;;;5124264;28;20640;-74
2021/05/02 01:37:55;;;;;;;40.78;31.90;;;;;;;;;;5133538;28;20198;-74
2021/05/02 01:40:21;;;;;;;40.55;31.70;;;;;;;;;;5133661;28;20181;-73
2021/05/02 01:42:48;;;;;;;41.58;32.08;;;;;;;;;;5113093;28;20205;-74
2021/05/02 01:45:13;;;;;;;40.55;31.55;;;;;;;;;;5127855;28;20185;-74
2021/05/02 01:47:44;;;;;;;45.75;32.35;;;;;;;;;;5133522;28;20542;-73
2021/05/02 01:50:11;;;;;;;43.22;32.05;;;;;;;;;;5133572;28;20575;-75
2021/05/02 01:52:43;;;;;;;44.05;32.72;;;;;;;;;;5133757;28;20181;-74
2021/05/02 01:55:09;;;;;;;43.72;32.17;;;;;;;;;;5119884;28;20253;-74
2021/05/02 01:57:35;;;;;;;43.92;32.42;;;;;;;;;;5133724;28;20209;-74
2021/05/02 02:00:09;;;;;;;44.10;32.88;;;;;;;;;;5133725;28;20174;-74
2021/05/02 02:02:36;;;;;;;47.35;33.40;;;;;;;;;;5133966;28;20548;-73
2021/05/02 02:05:03;;;;;;;43.38;32.88;;;;;;;;;;5133181;28;20591;-74
2021/05/02 02:07:30;;;;;;;47.88;35.58;;;;;;;;;;5118187;27;21701;-74
2021/05/02 02:09:57;;;;;;;44.97;32.95;;;;;;;;;;5125528;27;20273;-73
2021/05/02 02:12:23;;;;;;;44.47;33.40;;;;;;;;;;5109956;27;20178;-75
2021/05/02 02:14:50;;;;;;;46.33;33.50;;;;;;;;;;5117764;27;20175;-73
2021/05/02 02:17:16;;;;;;;40.42;30.83;;;;;;;;;;5134526;27;20185;-72
2021/05/02 02:19:42;;;;;;;43.85;33.30;;;;;;;;;;5118150;27;20179;-73
2021/05/02 02:22:09;;;;;;;42.83;32.45;;;;;;;;;;5125221;27;20206;-73
2021/05/02 02:24:45;;;;;;;40.13;30.90;;;;;;;;;;5116486;28;20643;-73
2021/05/02 02:27:12;;;;;;;40.38;30.98;;;;;;;;;;5134853;27;20197;-73
2021/05/02 02:29:40;;;;;;;37.40;30.52;;;;;;;;;;5135751;27;20181;-74
2021/05/02 02:32:07;;;;;;;38.35;29.90;;;;;;;;;;5130443;27;20166;-74
2021/05/02 02:34:35;;;;;;;42.40;31.73;;;;;;;;;;5116181;28;20174;-74
2021/05/02 02:37:01;;;;;;;40.35;31.50;;;;;;;;;;5122284;27;20186;-74
2021/05/02 02:39:28;;;;;;;42.13;31.80;;;;;;;;;;5114910;28;20266;-74
2021/05/02 02:41:57;;;;;;;44.22;32.83;;;;;;;;;;5103760;28;20640;-74
2021/05/02 02:44:23;;;;;;;45.25;34.35;;;;;;;;;;5116285;28;20257;-75
2021/05/02 02:46:54;;;;;;;43.60;32.63;;;;;;;;;;5117850;27;20255;-74
2021/05/02 02:49:21;;;;;;;44.28;32.40;;;;;;;;;;5113390;27;20285;-72
2021/05/02 02:51:50;;;;;;;41.00;32.10;;;;;;;;;;5124223;27;20182;-74
2021/05/02 02:54:18;;;;;;;43.80;32.50;;;;;;;;;;5118624;27;20563;-73
2021/05/02 02:56:45;;;;;;;48.58;36.10;;;;;;;;;;5126417;27;20237;-74
2021/05/02 02:59:31;;;;;;;49.10;36.08;;;;;;;;;;5121960;27;20289;-74
2021/05/02 03:01:59;;;;;;;44.90;34.58;;;;;;;;;;5130865;27;20181;-74
2021/05/02 03:04:26;;;;;;;48.58;33.97;;;;;;;;;;5136493;27;20648;-75
2021/05/02 03:06:54;;;;;;;48.25;35.30;;;;;;;;;;5120158;27;20208;-74
2021/05/02 03:09:21;;;;;;;51.03;35.40;;;;;;;;;;5122732;27;20300;-74
2021/05/02 03:11:48;;;;;;;48.20;33.47;;;;;;;;;;5110221;27;20185;-74
2021/05/02 03:14:14;;;;;;;48.38;33.92;;;;;;;;;;5121324;27;20250;-74
2021/05/02 03:16:44;;;;;;;47.55;34.58;;;;;;;;;;5128065;27;20206;-74
2021/05/02 03:19:22;;;;;;;53.13;34.67;;;;;;;;;;5135462;27;20197;-74
2021/05/02 03:22:06;;;;;;;51.65;36.05;;;;;;;;;;5130265;27;20185;-73
2021/05/02 03:24:34;;;;;;;48.08;34.10;;;;;;;;;;5110306;27;20179;-74
2021/05/02 03:27:04;;;;;;;54.40;35.80;;;;;;;;;;5144768;27;20206;-73
2021/05/02 03:29:33;;;;;;;49.65;36.10;;;;;;;;;;5117448;27;20552;-74
2021/05/02 03:32:01;;;;;;;51.20;36.15;;;;;;;;;;5130226;27;20186;-73
2021/05/02 03:34:28;;;;;;;55.30;37.55;;;;;;;;;;5115291;28;20611;-74
2021/05/02 03:36:58;;;;;;;49.03;35.55;;;;;;;;;;5112015;27;20534;-73
2021/05/02 03:39:24;;;;;;;54.13;35.35;;;;;;;;;;5107831;28;20179;-73
2021/05/02 03:41:50;;;;;;;55.22;37.10;;;;;;;;;;5107332;27;20185;-74
2021/05/02 03:44:16;;;;;;;50.70;35.30;;;;;;;;;;5103447;27;20667;-74
2021/05/02 03:46:42;;;;;;;59.20;37.43;;;;;;;;;;5115029;27;20554;-74
2021/05/02 03:49:08;;;;;;;53.40;37.80;;;;;;;;;;5113366;27;20417;-73
2021/05/02 03:51:36;;;;;;;57.47;37.53;;;;;;;;;;5121078;27;20411;-74
2021/05/02 03:54:03;;;;;;;58.63;36.70;;;;;;;;;;5125664;27;20182;-74
2021/05/02 03:56:30;;;;;;;56.30;37.78;;;;;;;;;;5121672;27;20262;-74
2021/05/02 03:59:06;;;;;;;57.25;37.38;;;;;;;;;;5123712;27;20252;-74
2021/05/02 04:01:32;;;;;;;67.60;40.58;;;;;;;;;;5105397;28;20269;-73
2021/05/02 04:03:59;;;;;;;63.40;39.60;;;;;;;;;;5127325;27;20178;-77
2021/05/02 04:06:25;;;;;;;66.63;41.45;;;;;;;;;;5134906;27;20281;-74
2021/05/02 04:08:51;;;;;;;66.25;42.05;;;;;;;;;;5119706;27;20216;-75
2021/05/02 04:11:17;;;;;;;67.93;43.27;;;;;;;;;;5106714;28;20615;-75
2021/05/02 04:13:43;;;;;;;65.30;43.80;;;;;;;;;;5123309;27;20441;-72
2021/05/02 04:16:09;;;;;;;75.20;44.37;;;;;;;;;;5110982;27;20420;-73
2021/05/02 04:18:35;;;;;;;72.57;44.27;;;;;;;;;;5134909;27;20427;-73
2021/05/02 04:21:01;;;;;;;71.67;44.33;;;;;;;;;;5115777;27;20390;-73
2021/05/02 04:23:27;;;;;;;65.07;43.03;;;;;;;;;;5127367;27;20447;-73
2021/05/02 04:25:53;;;;;;;61.10;41.10;;;;;;;;;;5114396;28;20440;-73
2021/05/02 04:28:19;;;;;;;62.87;41.33;;;;;;;;;;5128603;27;20455;-72
2021/05/02 04:30:45;;;;;;;62.60;41.37;;;;;;;;;;5133944;27;20415;-75
2021/05/02 04:33:11;;;;;;;62.57;40.37;;;;;;;;;;5130799;27;20399;-78
2021/05/02 04:35:37;;;;;;;59.60;41.10;;;;;;;;;;5119846;27;20416;-74
2021/05/02 04:38:02;;;;;;;58.67;39.77;;;;;;;;;;5126582;27;20903;-73
2021/05/02 04:40:28;;;;;;;58.93;38.67;;;;;;;;;;5113793;28;20418;-73
2021/05/02 04:42:54;;;;;;;63.60;40.77;;;;;;;;;;5115153;27;20416;-75
2021/05/02 04:45:20;;;;;;;59.23;39.60;;;;;;;;;;5116167;27;20429;-73
2021/05/02 04:47:46;;;;;;;62.15;40.95;;;;;;;;;;5128903;27;20461;-74
2021/05/02 04:50:12;;;;;;;63.57;41.70;;;;;;;;;;5134821;27;20178;-74
2021/05/02 04:52:40;;;;;;;56.42;40.30;;;;;;;;;;5132637;27;20518;-73
2021/05/02 04:55:06;;;;;;;60.78;42.17;;;;;;;;;;5116211;27;20175;-74
2021/05/02 04:57:32;;;;;;;63.40;41.33;;;;;;;;;;5113841;27;20194;-74
2021/05/02 04:59:58;;;;;;;53.30;37.67;;;;;;;;;;5111715;27;20603;-74
2021/05/02 05:02:24;;;;;;;52.50;37.90;;;;;;;;;;5127976;27;20210;-74
2021/05/02 05:04:50;;;;;;;52.50;37.97;;;;;;;;;;5133927;27;20392;-74
2021/05/02 05:07:16;;;;;;;49.30;36.60;;;;;;;;;;5116523;27;20477;-74
2021/05/02 05:09:42;;;;;;;51.03;37.00;;;;;;;;;;5111511;28;20436;-74
2021/05/02 05:12:08;;;;;;;45.93;35.07;;;;;;;;;;5113527;28;20459;-75
2021/05/02 05:14:34;;;;;;;43.38;31.73;;;;;;;;;;5121629;27;20404;-73
2021/05/02 05:17:00;;;;;;;40.00;26.77;;;;;;;;;;5117261;27;20224;-73
2021/05/02 05:19:26;;;;;;;46.13;32.23;;;;;;;;;;5113520;28;20419;-72
2021/05/02 05:21:52;;;;;;;40.53;29.95;;;;;;;;;;5115298;28;20884;-73
2021/05/02 05:24:18;;;;;;;35.63;27.95;;;;;;;;;;5108251;28;20186;-74
2021/05/02 05:26:44;;;;;;;34.67;27.73;;;;;;;;;;5114536;28;20191;-73
2021/05/02 05:29:10;;;;;;;33.33;26.90;;;;;;;;;;5116399;28;20523;-75
2021/05/02 05:31:36;;;;;;;33.47;26.97;;;;;;;;;;5109285;28;20396;-72
2021/05/02 05:34:01;;;;;;;36.10;26.40;;;;;;;;;;5117831;28;20500;-74
2021/05/02 05:36:27;;;;;;;31.23;25.70;;;;;;;;;;5113846;28;20493;-74
2021/05/02 05:38:53;;;;;;;37.67;25.83;;;;;;;;;;5126504;28;20470;-74
2021/05/02 05:41:19;;;;;;;35.77;27.03;;;;;;;;;;5115304;28;20171;-75
2021/05/02 05:43:45;;;;;;;36.28;27.20;;;;;;;;;;5125623;27;20445;-73
2021/05/02 05:46:13;;;;;;;37.37;27.77;;;;;;;;;;5124284;27;20261;-73
2021/05/02 05:48:40;;;;;;;34.83;25.02;;;;;;;;;;5111945;27;20465;-74
2021/05/02 05:51:08;;;;;;;32.35;24.80;;;;;;;;;;5128780;27;20170;-74
2021/05/02 05:53:34;;;;;;;30.95;25.02;;;;;;;;;;5127084;27;20641;-74
2021/05/02 05:56:00;;;;;;;31.48;24.98;;;;;;;;;;5119955;27;20227;-74
2021/05/02 05:58:29;;;;;;;34.57;25.73;;;;;;;;;;5122484;27;20282;-73
2021/05/02 06:00:55;;;;;;;30.15;24.48;;;;;;;;;;5115510;27;20447;-73
2021/05/02 06:03:21;;;;;;;29.50;23.40;;;;;;;;;;5137408;27;20178;-74
2021/05/02 06:05:47;;;;;;;27.87;22.57;;;;;;;;;;5111793;27;20193;-74
2021/05/02 06:08:13;;;;;;;29.83;23.63;;;;;;;;;;5128926;27;20430;-73
2021/05/02 06:10:39;;;;;;;28.25;23.02;;;;;;;;;;5115318;28;20324;-74
2021/05/02 06:13:05;;;;;;;27.05;21.23;;;;;;;;;;5126298;27;20176;-73
2021/05/02 06:15:31;;;;;;;27.60;21.80;;;;;;;;;;5122167;27;20221;-75
2021/05/02 06:17:57;;;;;;;24.55;20.48;;;;;;;;;;5131925;27;20476;-74
2021/05/02 06:20:23;;;;;;;23.40;20.35;;;;;;;;;;5129703;27;20216;-73
2021/05/02 06:22:50;;;;;;;24.20;19.77;;;;;;;;;;5125525;27;20271;-74
2021/05/02 06:25:16;;;;;;;25.65;20.70;;;;;;;;;;5106415;28;20413;-74
2021/05/02 06:27:42;;;;;;;23.02;19.88;;;;;;;;;;5126259;27;20201;-74
2021/05/02 06:30:09;;;;;;;24.97;20.63;;;;;;;;;;5113371;27;20231;-73
2021/05/02 06:32:36;;;;;;;22.58;18.52;;;;;;;;;;5128461;27;20414;-73
2021/05/02 06:35:02;;;;;;;24.02;19.77;;;;;;;;;;5130317;27;20231;-73
2021/05/02 06:37:29;;;;;;;21.98;17.98;;;;;;;;;;5131282;27;20281;-75
2021/05/02 06:39:56;;;;;;;22.83;19.48;;;;;;;;;;5109215;28;20190;-74
2021/05/02 06:42:22;;;;;;;22.02;19.58;;;;;;;;;;5116569;27;20530;-74
2021/05/02 06:44:48;;;;;;;21.95;18.75;;;;;;;;;;5133837;27;20184;-74
2021/05/02 06:47:14;;;;;;;21.70;19.10;;;;;;;;;;5136368;27;20265;-74
2021/05/02 06:49:40;;;;;;;22.77;18.20;;;;;;;;;;5132228;27;20174;-74
2021/05/02 06:52:06;;;;;;;21.88;18.60;;;;;;;;;;5136797;27;20403;-75
2021/05/02 06:54:32;;;;;;;20.05;17.95;;;;;;;;;;5111949;27;20546;-74
2021/05/02 06:56:58;;;;;;;20.70;17.93;;;;;;;;;;5116183;27;20175;-73
2021/05/02 06:59:24;;;;;;;21.10;17.95;;;;;;;;;;5135532;27;20930;-74
2021/05/02 07:01:50;;;;;;;19.25;16.40;;;;;;;;;;5108840;28;20531;-73
2021/05/02 07:04:16;;;;;;;19.53;16.70;;;;;;;;;;5118241;27;20182;-74
2021/05/02 07:06:42;;;;;;;21.73;18.95;;;;;;;;;;5121466;27;20460;-74
2021/05/02 07:09:08;;;;;;;21.53;17.90;;;;;;;;;;5115654;27;20267;-74
2021/05/02 07:11:34;;;;;;;18.43;16.47;;;;;;;;;;5116278;27;20416;-75
2021/05/02 07:14:02;;;;;;;17.95;16.05;;;;;;;;;;5124109;27;20412;-74
2021/05/02 07:16:28;;;;;;;19.63;17.55;;;;;;;;;;5126833;27;20230;-73
2021/05/02 07:18:54;;;;;;;18.80;16.08;;;;;;;;;;5122341;27;20527;-75
2021/05/02 07:21:20;;;;;;;18.33;16.40;;;;;;;;;;5136525;27;20184;-73
2021/05/02 07:23:51;;;;;;;18.05;15.23;;;;;;;;;;5119722;27;20163;-73
2021/05/02 07:26:17;;;;;;;14.88;13.38;;;;;;;;;;5124264;27;20189;-73
2021/05/02 07:28:43;;;;;;;16.63;14.98;;;;;;;;;;5127361;27;20206;-73
2021/05/02 07:31:11;;;;;;;17.13;15.37;;;;;;;;;;5117700;27;20173;-74
2021/05/02 07:33:37;;;;;;;15.45;13.90;;;;;;;;;;5105941;27;20413;-74
2021/05/02 07:36:03;;;;;;;15.27;13.77;;;;;;;;;;5127250;27;20186;-74
2021/05/02 07:38:29;;;;;;;15.82;14.32;;;;;;;;;;5108141;27;20551;-74
2021/05/02 07:40:58;;;;;;;16.20;14.60;;;;;;;;;;5125422;27;20194;-74
2021/05/02 07:43:24;;;;;;;15.85;14.00;;;;;;;;;;5123087;27;20174;-75
2021/05/02 07:45:50;;;;;;;14.27;12.80;;;;;;;;;;5135734;27;20178;-74
2021/05/02 07:48:16;;;;;;;15.40;13.80;;;;;;;;;;5127212;27;20205;-74
2021/05/02 07:50:42;;;;;;;15.38;13.77;;;;;;;;;;5135663;27;20177;-74
2021/05/02 07:53:09;;;;;;;15.30;13.38;;;;;;;;;;5123306;27;20523;-75
2021/05/02 07:55:35;;;;;;;14.35;12.95;;;;;;;;;;5116406;27;20663;-75
2021/05/02 07:58:01;;;;;;;15.30;13.70;;;;;;;;;;5133968;27;20251;-73
2021/05/02 08:00:27;;;;;;;13.73;12.32;;;;;;;;;;5119341;27;20167;-74
2021/05/02 08:02:53;;;;;;;22.45;19.67;;;;;;;;;;5135442;27;20628;-74
2021/05/02 08:05:19;;;;;;;14.50;13.02;;;;;;;;;;5134645;27;20740;-74
2021/05/02 08:07:45;;;;;;;18.85;16.95;;;;;;;;;;5101851;27;20207;-74
2021/05/02 08:10:12;;;;;;;17.27;15.57;;;;;;;;;;5115892;27;20193;-72
2021/05/02 08:12:38;;;;;;;21.55;19.25;;;;;;;;;;5116782;27;20182;-74
2021/05/02 08:15:05;;;;;;;22.77;20.55;;;;;;;;;;5120391;27;20512;-74
2021/05/02 08:17:31;;;;;;;20.45;18.35;;;;;;;;;;5134641;27;20209;-73
2021/05/02 08:19:57;;;;;;;21.10;19.00;;;;;;;;;;5116627;27;20182;-74
2021/05/02 08:22:23;;;;;;;20.83;18.73;;;;;;;;;;5117253;27;20424;-74
2021/05/02 08:24:49;;;;;;;20.77;18.67;;;;;;;;;;5111327;27;20182;-75
2021/05/02 08:27:15;;;;;;;19.75;17.73;;;;;;;;;;5102062;27;20461;-73
2021/05/02 08:29:41;;;;;;;18.70;16.80;;;;;;;;;;5113843;28;20197;-73
2021/05/02 08:32:07;;;;;;;19.70;17.50;;;;;;;;;;5120747;27;21013;-72
2021/05/02 08:34:33;;;;;;;18.05;16.25;;;;;;;;;;5134471;27;20401;-72
2021/05/02 08:36:59;;;;;;;17.65;15.93;;;;;;;;;;5111520;27;20185;-74
2021/05/02 08:39:25;;;;;;;16.05;14.32;;;;;;;;;;5111225;27;20663;-74
2021/05/02 08:41:51;;;;;;;14.90;13.40;;;;;;;;;;5114136;28;20627;-73
2021/05/02 08:44:23;;;;;;;13.00;11.70;;;;;;;;;;5118424;27;20223;-73
2021/05/02 08:46:49;;;;;;;13.18;11.93;;;;;;;;;;5115225;27;20491;-74
2021/05/02 08:49:15;;;;;;;12.87;11.70;;;;;;;;;;5105838;27;20219;-73
2021/05/02 08:51:41;;;;;;;13.98;12.68;;;;;;;;;;5125298;27;20408;-74
2021/05/02 08:54:07;;;;;;;14.37;12.97;;;;;;;;;;5114123;27;20226;-73
2021/05/02 08:56:33;;;;;;;13.40;12.10;;;;;;;;;;5115639;27;20409;-72
2021/05/02 08:58:59;;;;;;;13.00;11.80;;;;;;;;;;5123989;27;20497;-73
2021/05/02 09:01:29;;;;;;;14.02;12.73;;;;;;;;;;5129222;27;20626;-74
2021/05/02 09:03:55;;;;;;;13.20;12.00;;;;;;;;;;5130981;27;20197;-73
2021/05/02 09:06:27;;;;;;;14.07;12.77;;;;;;;;;;5107399;28;20187;-74
2021/05/02 09:08:56;;;;;;;13.95;12.63;;;;;;;;;;5107423;28;20541;-75
2021/05/02 09:11:41;;;;;;;12.30;11.10;;;;;;;;;;5104585;28;20201;-74
2021/05/02 09:14:24;;;;;;;13.50;12.20;;;;;;;;;;5103291;28;20174;-75
2021/05/02 09:16:51;;;;;;;12.88;11.63;;;;;;;;;;5101772;28;20596;-75
2021/05/02 09:19:21;;;;;;;11.30;10.20;;;;;;;;;;5105741;28;20255;-74
2021/05/02 09:21:47;;;;;;;10.50;9.40;;;;;;;;;;5130273;27;20206;-75
2021/05/02 09:24:27;;;;;;;11.65;10.60;;;;;;;;;;5126770;28;20613;-74
2021/05/02 09:27:02;;;;;;;8.65;7.85;;;;;;;;;;5129948;28;20197;-73
2021/05/02 09:29:30;;;;;;;8.52;7.80;;;;;;;;;;5111082;28;20171;-75
2021/05/02 09:31:56;;;;;;;7.88;7.18;;;;;;;;;;5109811;28;20831;-75
2021/05/02 09:34:22;;;;;;;8.07;7.37;;;;;;;;;;5129346;28;20176;-75
2021/05/02 09:36:54;;;;;;;8.13;7.45;;;;;;;;;;5130242;28;20415;-75
2021/05/02 09:39:39;;;;;;;8.55;7.75;;;;;;;;;;5130055;28;20217;-74
2021/05/02 09:42:10;;;;;;;9.00;8.10;;;;;;;;;;5116085;28;20182;-74
2021/05/02 09:44:39;;;;;;;9.13;8.32;;;;;;;;;;5130103;28;20538;-75
2021/05/02 09:47:24;;;;;;;8.15;7.45;;;;;;;;;;5130078;28;20284;-75
2021/05/02 09:50:02;;;;;;;7.72;6.97;;;;;;;;;;5130011;28;20172;-75
2021/05/02 09:52:48;;;;;;;9.70;8.80;;;;;;;;;;5129924;28;20771;-75
2021/05/02 09:55:18;;;;;;;8.05;7.38;;;;;;;;;;5128489;28;20786;-75
2021/05/02 09:57:50;;;;;;;7.70;7.00;;;;;;;;;;5129748;28;20217;-75
2021/05/02 10:00:25;;;;;;;7.53;6.95;;;;;;;;;;5129708;28;20527;-74
2021/05/02 10:02:51;;;;;;;7.65;7.05;;;;;;;;;;5129550;28;20324;-74
2021/05/02 10:05:17;;;;;;;7.70;7.00;;;;;;;;;;5125975;28;20202;-75
2021/05/02 10:07:44;;;;;;;6.65;6.05;;;;;;;;;;5109607;28;20206;-74
2021/05/02 10:10:10;;;;;;;6.57;5.95;;;;;;;;;;5110846;28;20175;-75
2021/05/02 10:12:40;;;;;;;6.55;6.05;;;;;;;;;;5102992;28;20182;-75
2021/05/02 10:15:06;;;;;;;5.73;5.10;;;;;;;;;;5114415;28;20176;-75
2021/05/02 10:17:32;;;;;;;5.90;5.50;;;;;;;;;;5103224;28;20432;-75
2021/05/02 10:19:59;;;;;;;5.23;4.83;;;;;;;;;;5108616;28;20429;-76
2021/05/02 10:22:25;;;;;;;5.00;4.60;;;;;;;;;;5108893;28;20841;-76
2021/05/02 10:24:51;;;;;;;5.20;4.80;;;;;;;;;;5105802;28;20425;-75
2021/05/02 10:27:18;;;;;;;6.13;5.73;;;;;;;;;;5118346;27;20467;-76
2021/05/02 10:29:48;;;;;;;5.27;4.97;;;;;;;;;;5121493;27;20417;-75
2021/05/02 10:32:15;;;;;;;5.70;5.30;;;;;;;;;;5123961;27;20404;-76
2021/05/02 10:34:46;;;;;;;5.67;5.37;;;;;;;;;;5124501;27;20414;-74
2021/05/02 10:37:28;;;;;;;6.77;6.30;;;;;;;;;;5124706;27;20423;-75
2021/05/02 10:39:59;;;;;;;5.30;4.90;;;;;;;;;;5116806;27;20791;-75
2021/05/02 10:42:46;;;;;;;5.77;5.37;;;;;;;;;;5117762;27;20779;-75
2021/05/02 10:45:31;;;;;;;6.60;5.90;;;;;;;;;;5122424;27;20783;-76
2021/05/02 10:48:05;;;;;;;6.00;5.60;;;;;;;;;;5113160;27;20498;-75
2021/05/02 10:50:35;;;;;;;6.30;5.90;;;;;;;;;;5130782;27;20439;-76
2021/05/02 10:53:05;;;;;;;5.80;5.40;;;;;;;;;;5131299;27;20407;-75
2021/05/02 10:55:49;;;;;;;5.73;5.33;;;;;;;;;;5105960;27;20415;-76
2021/05/02 10:58:24;;;;;;;6.23;5.83;;;;;;;;;;5128588;27;20499;-74
2021/05/02 11:01:02;;;;;;;6.70;6.30;;;;;;;;;;5113493;27;20411;-76
2021/05/02 11:06:09;;;;;;;5.90;5.50;;;;;;;;;;5122870;27;20437;-75
2021/05/02 11:08:45;;;;;;;6.00;5.60;;;;;;;;;;5125588;27;20621;-76
2021/05/02 11:11:33;;;;;;;6.10;5.70;;;;;;;;;;5114458;27;20485;-75
2021/05/02 11:14:08;;;;;;;5.53;5.13;;;;;;;;;;5125558;27;20412;-74
2021/05/02 11:16:34;;;;;;;5.80;5.40;;;;;;;;;;5102060;28;20424;-75
2021/05/02 11:19:01;;;;;;;7.37;6.87;;;;;;;;;;5114330;27;20437;-76
2021/05/02 11:21:27;;;;;;;6.00;5.60;;;;;;;;;;5105044;27;20407;-75
2021/05/02 11:23:54;;;;;;;6.20;5.70;;;;;;;;;;5124805;27;20417;-73
2021/05/02 11:26:40;;;;;;;5.20;4.80;;;;;;;;;;5105147;27;20415;-73
2021/05/02 11:29:24;;;;;;;5.70;5.20;;;;;;;;;;5115374;27;20438;-75
2021/05/02 11:31:50;;;;;;;5.47;4.97;;;;;;;;;;5132379;27;20427;-75
2021/05/02 11:34:16;;;;;;;5.70;5.30;;;;;;;;;;5114774;27;20411;-74
2021/05/02 11:36:43;;;;;;;6.90;6.40;;;;;;;;;;5130552;27;20415;-73
2021/05/02 11:39:28;;;;;;;6.83;6.33;;;;;;;;;;5118004;27;20431;-73
2021/05/02 11:42:10;;;;;;;7.63;6.93;;;;;;;;;;5116416;27;20485;-73
2021/05/02 11:44:38;;;;;;;6.90;6.40;;;;;;;;;;5131764;27;20470;-74
2021/05/02 11:47:08;;;;;;;7.30;6.80;;;;;;;;;;5126570;27;20890;-74
2021/05/02 11:49:35;;;;;;;7.43;6.83;;;;;;;;;;5111278;28;20919;-73
2021/05/02 11:52:01;;;;;;;7.50;6.90;;;;;;;;;;5123397;27;20413;-74
2021/05/02 11:54:27;;;;;;;7.40;6.80;;;;;;;;;;5114652;27;20533;-74
2021/05/02 11:56:53;;;;;;;7.38;6.68;;;;;;;;;;5128548;27;20421;-74
2021/05/02 11:59:20;;;;;;;7.17;6.57;;;;;;;;;;5114672;27;20940;-74
2021/05/02 12:01:47;;;;;;;7.57;6.95;;;;;;;;;;5131310;27;20407;-74
2021/05/02 12:04:22;;;;;;;6.80;6.20;;;;;;;;;;5103053;28;20182;-75
2021/05/02 12:06:51;;;;;;;7.00;6.47;;;;;;;;;;5129710;27;20749;-74
2021/05/02 12:09:18;;;;;;;8.45;6.75;;;;;;;;;;5110684;28;20337;-73
2021/05/02 12:11:47;;;;;;;6.30;5.70;;;;;;;;;;5108598;27;20212;-73
2021/05/02 12:14:20;;;;;;;6.53;5.25;;;;;;;;;;5116184;27;20285;-74
2021/05/02 12:16:55;;;;;;;6.30;5.70;;;;;;;;;;5131182;27;20174;-74
2021/05/02 12:19:21;;;;;;;5.30;4.80;;;;;;;;;;5116519;27;20228;-72
2021/05/02 12:21:47;;;;;;;4.72;4.35;;;;;;;;;;5131210;27;20258;-74
2021/05/02 12:24:29;;;;;;;4.20;3.72;;;;;;;;;;5114876;27;20189;-74
2021/05/02 12:26:58;;;;;;;4.00;3.60;;;;;;;;;;5131161;27;20292;-74
2021/05/02 12:29:28;;;;;;;4.10;3.70;;;;;;;;;;5104932;27;20262;-75
2021/05/02 12:31:54;;;;;;;5.77;5.27;;;;;;;;;;5130932;27;20413;-75
2021/05/02 12:34:25;;;;;;;4.70;4.30;;;;;;;;;;5109656;27;20422;-75
2021/05/02 12:36:51;;;;;;;4.60;4.30;;;;;;;;;;5130744;27;20760;-74
2021/05/02 12:39:17;;;;;;;4.10;3.70;;;;;;;;;;5107657;27;20454;-75
2021/05/02 12:41:43;;;;;;;3.83;3.53;;;;;;;;;;5104474;28;20416;-74
2021/05/02 12:44:15;;;;;;;3.80;3.50;;;;;;;;;;5109720;27;20445;-75
2021/05/02 12:46:43;;;;;;;4.17;3.80;;;;;;;;;;5112319;27;20421;-74
2021/05/02 12:49:09;;;;;;;4.33;4.03;;;;;;;;;;5130436;27;20502;-74
2021/05/02 12:51:35;;;;;;;3.97;3.67;;;;;;;;;;5119075;27;20837;-74
2021/05/02 12:54:08;;;;;;;4.47;4.07;;;;;;;;;;5119028;27;20425;-73
2021/05/02 12:56:34;;;;;;;4.00;3.70;;;;;;;;;;5120005;27;20433;-73
2021/05/02 12:59:01;;;;;;;4.37;4.00;;;;;;;;;;5130355;27;20818;-73
2021/05/02 13:01:28;;;;;;;5.57;4.43;;;;;;;;;;5123528;27;20511;-73
2021/05/02 13:03:58;;;;;;;4.60;4.30;;;;;;;;;;5130340;27;20780;-72
2021/05/02 13:06:25;;;;;;;6.30;5.70;;;;;;;;;;5121991;27;20429;-74
2021/05/02 13:09:02;;;;;;;4.30;4.00;;;;;;;;;;5129930;27;20474;-71
2021/05/02 13:11:34;;;;;;;4.60;4.30;;;;;;;;;;5121562;27;20428;-73
2021/05/02 13:14:23;;;;;;;3.93;3.53;;;;;;;;;;5130246;27;20415;-72
2021/05/02 13:16:53;;;;;;;3.80;3.50;;;;;;;;;;5092325;28;20511;-74
2021/05/02 13:19:28;;;;;;;5.15;4.20;;;;;;;;;;5122830;27;20851;-73
2021/05/02 13:21:55;;;;;;;4.33;3.93;;;;;;;;;;5113915;27;20207;-73
2021/05/02 13:24:21;;;;;;;3.70;3.40;;;;;;;;;;5111592;28;20503;-74
2021/05/02 13:26:47;;;;;;;3.40;3.10;;;;;;;;;;5121809;28;21049;-75
2021/05/02 13:29:14;;;;;;;3.30;3.00;;;;;;;;;;5120227;28;20511;-75
2021/05/02 13:31:57;;;;;;;3.93;3.63;;;;;;;;;;5120563;28;20427;-74
2021/05/02 13:34:26;;;;;;;3.40;3.10;;;;;;;;;;5109200;28;20434;-74
2021/05/02 13:36:54;;;;;;;3.70;3.40;;;;;;;;;;5109534;28;20450;-74
2021/05/02 13:39:24;;;;;;;3.90;3.60;;;;;;;;;;5121568;28;20460;-75
2021/05/02 13:41:55;;;;;;;3.73;2.73;;;;;;;;;;5113384;28;20193;-74
2021/05/02 13:44:29;;;;;;;3.47;3.17;;;;;;;;;;5123705;28;20450;-74
2021/05/02 13:47:02;;;;;;;4.20;3.90;;;;;;;;;;5109558;28;20183;-73
2021/05/02 13:49:34;;;;;;;7.57;4.20;;;;;;;;;;5120211;28;20203;-74
2021/05/02 13:52:00;;;;;;;9.35;4.28;;;;;;;;;;5120506;28;20415;-74
2021/05/02 13:54:29;;;;;;;5.50;4.10;;;;;;;;;;5121818;28;20486;-74
2021/05/02 13:56:55;;;;;;;4.43;4.03;;;;;;;;;;5120518;28;20423;-74
2021/05/02 13:59:21;;;;;;;5.60;5.10;;;;;;;;;;5124422;27;20217;-74
2021/05/02 14:01:47;;;;;;;5.32;4.80;;;;;;;;;;5120308;27;20181;-74
2021/05/02 14:04:13;;;;;;;6.30;5.70;;;;;;;;;;5111760;27;20188;-74
2021/05/02 14:06:39;;;;;;;6.00;5.30;;;;;;;;;;5128529;27;20193;-74
2021/05/02 14:09:06;;;;;;;5.30;4.80;;;;;;;;;;5116273;27;20471;-73
2021/05/02 14:11:31;;;;;;;5.38;4.85;;;;;;;;;;5114907;27;20407;-74
2021/05/02 14:13:57;;;;;;;5.33;4.83;;;;;;;;;;5119649;27;20817;-74
2021/05/02 14:16:23;;;;;;;4.43;4.03;;;;;;;;;;5128174;27;20420;-74
2021/05/02 14:18:50;;;;;;;5.30;4.80;;;;;;;;;;5122323;27;20471;-75
2021/05/02 14:21:16;;;;;;;5.45;4.95;;;;;;;;;;5133444;27;20560;-74
2021/05/02 14:23:42;;;;;;;5.40;4.90;;;;;;;;;;5119423;27;20179;-74
2021/05/02 14:26:08;;;;;;;6.53;5.90;;;;;;;;;;5129570;27;20201;-75
2021/05/02 14:28:35;;;;;;;7.90;6.47;;;;;;;;;;5132159;27;20206;-73
2021/05/02 14:31:01;;;;;;;5.20;4.53;;;;;;;;;;5133283;27;20192;-73
2021/05/02 14:33:28;;;;;;;6.88;5.35;;;;;;;;;;5116043;27;20547;-74
2021/05/02 14:35:54;;;;;;;8.55;5.90;;;;;;;;;;5125909;27;20364;-74